FCK2FT EDDP-EDDC
Flight info
| Callsign | FCK2FT |
|---|---|
| Flight time | 0h 38m |
| Altitude | 9000 |
| Route | DRN2E DRN |
| Aircraft | BE20/L-SBGRY/S |
Departure
| Time | 2026-05-08 18:53 |
|---|---|
| Airport | Leipzig/Halle Airport (EDDP) |
Arrival
| Time | 2026-05-08 19:31 |
|---|---|
| Airport | Dresden Airport (EDDC) |
| Time | Latitude | Longitude | Altitude | Speed | Heading |
|---|---|---|---|---|---|
| 2026-05-08 18:52 | 51.41381 | 12.25169 | 466 ft | 0 kts | 265° |
| 2026-05-08 18:52 | 51.41381 | 12.25161 | 466 ft | 7 kts | 265° |
| 2026-05-08 18:52 | 51.41361 | 12.24695 | 468 ft | 80 kts | 265° |
| 2026-05-08 18:53 | 51.41304 | 12.23464 | 549 ft | 134 kts | 266° |
| 2026-05-08 18:53 | 51.41198 | 12.21727 | 550 ft | 183 kts | 265° |
| 2026-05-08 18:53 | 51.41080 | 12.19760 | 1414 ft | 173 kts | 265° |
| 2026-05-08 18:53 | 51.40975 | 12.17881 | 2338 ft | 167 kts | 265° |
| 2026-05-08 18:54 | 51.40846 | 12.16065 | 3228 ft | 163 kts | 255° |
| 2026-05-08 18:54 | 51.40167 | 12.14694 | 4044 ft | 160 kts | 205° |
| 2026-05-08 18:54 | 51.39090 | 12.14495 | 4847 ft | 159 kts | 163° |
| 2026-05-08 18:54 | 51.38193 | 12.15471 | 5602 ft | 160 kts | 124° |
| 2026-05-08 18:55 | 51.37545 | 12.18890 | 7061 ft | 165 kts | 103° |
| 2026-05-08 18:55 | 51.37285 | 12.20703 | 7755 ft | 169 kts | 103° |
| 2026-05-08 18:55 | 51.37024 | 12.22539 | 8450 ft | 174 kts | 103° |
| 2026-05-08 18:56 | 51.36752 | 12.24443 | 9192 ft | 177 kts | 103° |
| 2026-05-08 18:56 | 51.36473 | 12.26383 | 9912 ft | 183 kts | 103° |
| 2026-05-08 18:56 | 51.36157 | 12.28578 | 9992 ft | 220 kts | 103° |
| 2026-05-08 18:56 | 51.35789 | 12.31107 | 9753 ft | 243 kts | 103° |
| 2026-05-08 18:57 | 51.35401 | 12.33769 | 9865 ft | 248 kts | 103° |
| 2026-05-08 18:57 | 51.35141 | 12.35538 | 9918 ft | 251 kts | 103° |
| 2026-05-08 18:57 | 51.34650 | 12.38875 | 9959 ft | 257 kts | 103° |
| 2026-05-08 18:57 | 51.34235 | 12.41698 | 9981 ft | 260 kts | 103° |
| 2026-05-08 18:58 | 51.33818 | 12.44520 | 9988 ft | 262 kts | 103° |
| 2026-05-08 18:58 | 51.33384 | 12.47305 | 9991 ft | 261 kts | 107° |
| 2026-05-08 18:58 | 51.32671 | 12.49970 | 9993 ft | 261 kts | 116° |
| 2026-05-08 18:58 | 51.31919 | 12.52614 | 9995 ft | 262 kts | 114° |
| 2026-05-08 18:59 | 51.31213 | 12.55179 | 9996 ft | 263 kts | 114° |
| 2026-05-08 18:59 | 51.30473 | 12.57856 | 9996 ft | 263 kts | 114° |
| 2026-05-08 18:59 | 51.29731 | 12.60533 | 9996 ft | 264 kts | 114° |
| 2026-05-08 18:59 | 51.29051 | 12.62985 | 9996 ft | 264 kts | 114° |
| 2026-05-08 19:00 | 51.28558 | 12.64756 | 9997 ft | 264 kts | 114° |
| 2026-05-08 19:00 | 51.27560 | 12.68343 | 9996 ft | 264 kts | 114° |
| 2026-05-08 19:00 | 51.26893 | 12.70735 | 9996 ft | 264 kts | 114° |
| 2026-05-08 19:00 | 51.26154 | 12.73381 | 9997 ft | 264 kts | 114° |
| 2026-05-08 19:01 | 51.25406 | 12.76059 | 9997 ft | 264 kts | 114° |
| 2026-05-08 19:01 | 51.24658 | 12.78736 | 9997 ft | 264 kts | 114° |
| 2026-05-08 19:01 | 51.23908 | 12.81413 | 9997 ft | 264 kts | 114° |
| 2026-05-08 19:01 | 51.23157 | 12.84092 | 9996 ft | 264 kts | 114° |
| 2026-05-08 19:02 | 51.22448 | 12.86622 | 9996 ft | 264 kts | 114° |
| 2026-05-08 19:02 | 51.21696 | 12.89297 | 9996 ft | 264 kts | 114° |
| 2026-05-08 19:02 | 51.20943 | 12.91974 | 9997 ft | 264 kts | 114° |
| 2026-05-08 19:02 | 51.20192 | 12.94645 | 9997 ft | 264 kts | 114° |
| 2026-05-08 19:03 | 51.19438 | 12.97319 | 9997 ft | 264 kts | 114° |
| 2026-05-08 19:03 | 51.18684 | 12.99991 | 9997 ft | 264 kts | 114° |
| 2026-05-08 19:03 | 51.17940 | 13.02628 | 9996 ft | 264 kts | 114° |
| 2026-05-08 19:03 | 51.17204 | 13.05231 | 9996 ft | 264 kts | 114° |
| 2026-05-08 19:04 | 51.16447 | 13.07903 | 9997 ft | 264 kts | 114° |
| 2026-05-08 19:04 | 51.15823 | 13.10107 | 10165 ft | 269 kts | 114° |
| 2026-05-08 19:04 | 51.15045 | 13.12849 | 10066 ft | 273 kts | 114° |
| 2026-05-08 19:04 | 51.14263 | 13.15602 | 10020 ft | 273 kts | 114° |
| 2026-05-08 19:05 | 51.13482 | 13.18350 | 10000 ft | 272 kts | 114° |
| 2026-05-08 19:05 | 51.12965 | 13.20165 | 9920 ft | 274 kts | 114° |
| 2026-05-08 19:05 | 51.12183 | 13.22908 | 9528 ft | 282 kts | 114° |
| 2026-05-08 19:05 | 51.11366 | 13.25774 | 9131 ft | 285 kts | 114° |
| 2026-05-08 19:06 | 51.10315 | 13.29449 | 8630 ft | 285 kts | 115° |
| 2026-05-08 19:06 | 51.09496 | 13.32316 | 8248 ft | 284 kts | 115° |
| 2026-05-08 19:06 | 51.08810 | 13.35159 | 7875 ft | 280 kts | 109° |
| 2026-05-08 19:06 | 51.07986 | 13.37917 | 7495 ft | 274 kts | 128° |
| 2026-05-08 19:07 | 51.07189 | 13.39462 | 7252 ft | 274 kts | 131° |
| 2026-05-08 19:07 | 51.05924 | 13.41727 | 6887 ft | 274 kts | 133° |
| 2026-05-08 19:07 | 51.04685 | 13.43857 | 6487 ft | 264 kts | 133° |
| 2026-05-08 19:07 | 51.03439 | 13.45950 | 5659 ft | 255 kts | 133° |
| 2026-05-08 19:08 | 51.01874 | 13.48581 | 4845 ft | 240 kts | 131° |
| 2026-05-08 19:08 | 51.00789 | 13.50541 | 4144 ft | 235 kts | 129° |
| 2026-05-08 19:08 | 51.00106 | 13.51812 | 4024 ft | 218 kts | 129° |
| 2026-05-08 19:08 | 50.99454 | 13.53685 | 4104 ft | 179 kts | 92° |
| 2026-05-08 19:09 | 50.99601 | 13.55488 | 3772 ft | 176 kts | 78° |
| 2026-05-08 19:09 | 50.99929 | 13.57354 | 3387 ft | 175 kts | 64° |
| 2026-05-08 19:09 | 51.00595 | 13.58951 | 3051 ft | 171 kts | 49° |
| 2026-05-08 19:09 | 51.01414 | 13.60345 | 3023 ft | 175 kts | 45° |
| 2026-05-08 19:10 | 51.02325 | 13.61651 | 3011 ft | 179 kts | 40° |
| 2026-05-08 19:10 | 51.03315 | 13.62952 | 3004 ft | 189 kts | 40° |
| 2026-05-08 19:10 | 51.04336 | 13.64312 | 2914 ft | 195 kts | 41° |
| 2026-05-08 19:10 | 51.05369 | 13.65725 | 2639 ft | 197 kts | 42° |
| 2026-05-08 19:11 | 51.06406 | 13.67158 | 2372 ft | 198 kts | 41° |
| 2026-05-08 19:11 | 51.07450 | 13.68587 | 2089 ft | 198 kts | 41° |
| 2026-05-08 19:11 | 51.08481 | 13.69997 | 1812 ft | 198 kts | 41° |
| 2026-05-08 19:11 | 51.09519 | 13.71425 | 1499 ft | 197 kts | 41° |
| 2026-05-08 19:12 | 51.10554 | 13.72848 | 1209 ft | 196 kts | 41° |
| 2026-05-08 19:12 | 51.11547 | 13.74209 | 1193 ft | 178 kts | 40° |
| 2026-05-08 19:12 | 51.12432 | 13.75423 | 1182 ft | 161 kts | 40° |
| 2026-05-08 19:12 | 51.13443 | 13.76116 | 1754 ft | 166 kts | 355° |
| 2026-05-08 19:13 | 51.14458 | 13.75112 | 2180 ft | 192 kts | 303° |
| 2026-05-08 19:13 | 51.14745 | 13.72957 | 2358 ft | 211 kts | 270° |
| 2026-05-08 19:13 | 51.14585 | 13.70574 | 2422 ft | 222 kts | 248° |
| 2026-05-08 19:13 | 51.13716 | 13.68556 | 2458 ft | 229 kts | 229° |
| 2026-05-08 19:14 | 51.12637 | 13.66652 | 2472 ft | 234 kts | 225° |
| 2026-05-08 19:14 | 51.11458 | 13.64843 | 2484 ft | 237 kts | 222° |
| 2026-05-08 19:14 | 51.10237 | 13.63069 | 2486 ft | 238 kts | 221° |
| 2026-05-08 19:14 | 51.09001 | 13.61305 | 2486 ft | 239 kts | 221° |
| 2026-05-08 19:15 | 51.07757 | 13.59544 | 2487 ft | 239 kts | 221° |
| 2026-05-08 19:15 | 51.06513 | 13.57788 | 2489 ft | 239 kts | 221° |
| 2026-05-08 19:15 | 51.05238 | 13.56116 | 2484 ft | 235 kts | 208° |
| 2026-05-08 19:15 | 51.03678 | 13.55700 | 2488 ft | 234 kts | 167° |
| 2026-05-08 19:16 | 51.02314 | 13.56986 | 2494 ft | 232 kts | 127° |
| 2026-05-08 19:16 | 51.01827 | 13.59387 | 2495 ft | 229 kts | 86° |
| 2026-05-08 19:16 | 51.02368 | 13.61663 | 2502 ft | 228 kts | 49° |
| 2026-05-08 19:16 | 51.03519 | 13.63385 | 2494 ft | 228 kts | 41° |
| 2026-05-08 19:17 | 51.04752 | 13.64992 | 2495 ft | 230 kts | 39° |
| 2026-05-08 19:17 | 51.05941 | 13.66490 | 2488 ft | 207 kts | 39° |
| 2026-05-08 19:17 | 51.07027 | 13.67964 | 2197 ft | 204 kts | 42° |
| 2026-05-08 19:17 | 51.08087 | 13.69447 | 1903 ft | 202 kts | 41° |
| 2026-05-08 19:18 | 51.09145 | 13.70900 | 1608 ft | 200 kts | 41° |
| 2026-05-08 19:18 | 51.10192 | 13.72338 | 1312 ft | 198 kts | 41° |
| 2026-05-08 19:18 | 51.11201 | 13.73721 | 1266 ft | 185 kts | 41° |
| 2026-05-08 19:18 | 51.12130 | 13.74995 | 1498 ft | 169 kts | 41° |
| 2026-05-08 19:19 | 51.13030 | 13.76143 | 1947 ft | 170 kts | 28° |
| 2026-05-08 19:19 | 51.14259 | 13.76177 | 2265 ft | 197 kts | 336° |
| 2026-05-08 19:19 | 51.15225 | 13.74533 | 2402 ft | 218 kts | 291° |
| 2026-05-08 19:19 | 51.15407 | 13.72096 | 2449 ft | 226 kts | 270° |
| 2026-05-08 19:20 | 51.14920 | 13.69737 | 2466 ft | 230 kts | 233° |
| 2026-05-08 19:20 | 51.14234 | 13.68449 | 2473 ft | 232 kts | 225° |
| 2026-05-08 19:20 | 51.12645 | 13.66116 | 2485 ft | 237 kts | 220° |
| 2026-05-08 19:20 | 51.11388 | 13.64412 | 2489 ft | 238 kts | 219° |
| 2026-05-08 19:21 | 51.10127 | 13.62700 | 2489 ft | 239 kts | 220° |
| 2026-05-08 19:21 | 51.08884 | 13.60943 | 2469 ft | 240 kts | 221° |
| 2026-05-08 19:21 | 51.07520 | 13.59398 | 2200 ft | 242 kts | 198° |
| 2026-05-08 19:21 | 51.05900 | 13.59371 | 2097 ft | 230 kts | 164° |
| 2026-05-08 19:22 | 51.04322 | 13.59527 | 2041 ft | 234 kts | 195° |
| 2026-05-08 19:22 | 51.03005 | 13.58042 | 2021 ft | 238 kts | 235° |
| 2026-05-08 19:22 | 51.02563 | 13.55551 | 2007 ft | 236 kts | 271° |
| 2026-05-08 19:22 | 51.02460 | 13.52978 | 2133 ft | 228 kts | 262° |
| 2026-05-08 19:23 | 51.02223 | 13.50644 | 2842 ft | 206 kts | 268° |
| 2026-05-08 19:23 | 51.01826 | 13.48517 | 3191 ft | 213 kts | 232° |
| 2026-05-08 19:23 | 51.00553 | 13.47285 | 3354 ft | 225 kts | 188° |
| 2026-05-08 19:23 | 50.99027 | 13.47714 | 3433 ft | 229 kts | 147° |
| 2026-05-08 19:24 | 50.98048 | 13.49652 | 3462 ft | 230 kts | 105° |
| 2026-05-08 19:24 | 50.97947 | 13.52152 | 3469 ft | 228 kts | 86° |
| 2026-05-08 19:24 | 50.98243 | 13.54608 | 3478 ft | 229 kts | 66° |
| 2026-05-08 19:24 | 50.99142 | 13.56612 | 3477 ft | 218 kts | 41° |
| 2026-05-08 19:25 | 51.00446 | 13.57719 | 3474 ft | 212 kts | 14° |
| 2026-05-08 19:25 | 51.01896 | 13.57747 | 3478 ft | 210 kts | 347° |
| 2026-05-08 19:25 | 51.03175 | 13.56725 | 3483 ft | 211 kts | 320° |
| 2026-05-08 19:25 | 51.04034 | 13.54851 | 3489 ft | 213 kts | 292° |
| 2026-05-08 19:26 | 51.04262 | 13.52536 | 3490 ft | 214 kts | 265° |
| 2026-05-08 19:26 | 51.03802 | 13.50304 | 3490 ft | 215 kts | 237° |
| 2026-05-08 19:26 | 51.02753 | 13.48646 | 3491 ft | 215 kts | 211° |
| 2026-05-08 19:26 | 51.01342 | 13.47923 | 3489 ft | 215 kts | 182° |
| 2026-05-08 19:27 | 50.99871 | 13.48283 | 3491 ft | 216 kts | 159° |
| 2026-05-08 19:27 | 50.98516 | 13.49260 | 3484 ft | 214 kts | 136° |
| 2026-05-08 19:27 | 50.97848 | 13.51301 | 3488 ft | 215 kts | 93° |
| 2026-05-08 19:27 | 50.97894 | 13.53715 | 3490 ft | 224 kts | 84° |
| 2026-05-08 19:28 | 50.98327 | 13.55984 | 3488 ft | 214 kts | 51° |
| 2026-05-08 19:28 | 50.99358 | 13.57626 | 3485 ft | 213 kts | 41° |
| 2026-05-08 19:28 | 51.00499 | 13.59146 | 3484 ft | 216 kts | 39° |
| 2026-05-08 19:28 | 51.01675 | 13.60677 | 3486 ft | 221 kts | 40° |
| 2026-05-08 19:29 | 51.02883 | 13.62309 | 3292 ft | 236 kts | 41° |
| 2026-05-08 19:29 | 51.04149 | 13.64059 | 2955 ft | 245 kts | 41° |
| 2026-05-08 19:29 | 51.05448 | 13.65837 | 2610 ft | 248 kts | 41° |
| 2026-05-08 19:29 | 51.06758 | 13.67630 | 2261 ft | 248 kts | 41° |
| 2026-05-08 19:30 | 51.08025 | 13.69368 | 1936 ft | 224 kts | 41° |
| 2026-05-08 19:30 | 51.09110 | 13.70856 | 1630 ft | 196 kts | 41° |
| 2026-05-08 19:30 | 51.10081 | 13.72194 | 1326 ft | 172 kts | 41° |
| 2026-05-08 19:30 | 51.10908 | 13.73327 | 1086 ft | 144 kts | 40° |
| 2026-05-08 19:31 | 51.11633 | 13.74325 | 952 ft | 141 kts | 41° |
| 2026-05-08 19:31 | 51.12350 | 13.75311 | 778 ft | 129 kts | 41° |
| 2026-05-08 19:31 | 51.12973 | 13.76171 | 707 ft | 107 kts | 41° |
| 2026-05-08 19:31 | 51.13413 | 13.76778 | 706 ft | 28 kts | 42° |
| 2026-05-08 19:32 | 51.13460 | 13.76793 | 706 ft | 13 kts | 230° |
| 2026-05-08 19:32 | 51.13350 | 13.76785 | 702 ft | 14 kts | 139° |
| 2026-05-08 19:32 | 51.13273 | 13.76921 | 704 ft | 3 kts | 134° |
| 2026-05-08 19:32 | 51.13252 | 13.76956 | 706 ft | 12 kts | 136° |
| 2026-05-08 19:33 | 51.13117 | 13.76842 | 706 ft | 27 kts | 217° |
| 2026-05-08 19:33 | 51.12975 | 13.76644 | 706 ft | 36 kts | 222° |
| 2026-05-08 19:33 | 51.12801 | 13.76410 | 706 ft | 29 kts | 221° |
| 2026-05-08 19:33 | 51.12660 | 13.76217 | 706 ft | 30 kts | 221° |
| 2026-05-08 19:34 | 51.12528 | 13.76152 | 702 ft | 17 kts | 129° |
| 2026-05-08 19:34 | 51.12438 | 13.76122 | 706 ft | 13 kts | 252° |